createdAt,value
2023-02-02T00:00:54.892Z,101013.19
2023-02-02T00:05:07.563Z,101008.38
2023-02-02T00:09:21.285Z,100994.50
2023-02-02T01:00:53.865Z,100966.41
2023-02-02T01:05:09.355Z,100972.44
2023-02-02T01:09:22.401Z,100964.47
2023-02-02T01:13:35.399Z,100962.78
2023-02-02T01:17:47.782Z,100952.59
2023-02-02T01:22:02.283Z,100948.25
2023-02-02T01:26:16.564Z,100951.81
2023-02-02T01:30:29.423Z,100935.78
2023-02-02T01:34:43.931Z,100936.44
2023-02-02T01:38:56.623Z,100944.28
2023-02-02T01:43:24.452Z,100924.44
2023-02-02T01:47:44.231Z,100928.06
2023-02-02T01:52:01.228Z,100912.22
2023-02-02T01:56:19.320Z,100912.25
2023-02-02T02:00:32.006Z,100897.66
2023-02-02T02:04:44.496Z,100901.69
2023-02-02T02:09:01.209Z,100905.13
2023-02-02T02:13:14.826Z,100904.00
2023-02-02T02:17:46.826Z,100902.88
2023-02-02T02:22:35.587Z,100886.16
2023-02-02T02:27:07.073Z,100890.28
2023-02-02T02:32:08.796Z,100890.78
2023-02-02T02:36:56.239Z,100879.13
2023-02-02T02:41:29.273Z,100880.53
2023-02-02T02:45:44.854Z,100888.72
2023-02-02T02:49:58.946Z,100882.72
2023-02-02T02:54:19.173Z,100882.41
2023-02-02T02:58:31.455Z,100869.13
2023-02-02T03:03:02.794Z,100868.25
2023-02-02T03:07:26.506Z,100870.34
2023-02-02T03:11:39.038Z,100867.91
2023-02-02T03:15:51.407Z,100873.47
2023-02-02T03:20:04.067Z,100878.09
2023-02-02T03:24:16.410Z,100872.91
2023-02-02T03:28:30.744Z,100874.66
2023-02-02T03:32:43.199Z,100877.22
2023-02-02T03:36:55.537Z,100883.44
2023-02-02T03:41:07.975Z,100869.28
2023-02-02T03:45:20.302Z,100872.97
2023-02-02T03:49:32.645Z,100868.56
2023-02-02T03:53:44.986Z,100873.06
2023-02-02T03:57:57.331Z,100869.78
2023-02-02T04:02:09.767Z,100860.34
2023-02-02T04:06:22.822Z,100850.63
2023-02-02T04:10:35.169Z,100844.50
2023-02-02T04:14:47.445Z,100858.69
2023-02-02T04:18:59.801Z,100858.75
2023-02-02T04:23:12.135Z,100852.50
2023-02-02T04:27:24.529Z,100855.13
2023-02-02T04:31:36.925Z,100854.97
2023-02-02T04:35:49.400Z,100848.00
2023-02-02T04:40:01.736Z,100854.34
2023-02-02T04:44:17.314Z,100856.13
2023-02-02T04:48:29.744Z,100853.47
2023-02-02T04:52:43.371Z,100853.47
2023-02-02T04:56:56.637Z,100850.84
2023-02-02T05:01:17.995Z,100850.03
2023-02-02T05:05:30.365Z,100861.41
2023-02-02T05:09:43.892Z,100865.47
2023-02-02T05:13:56.249Z,100860.34
2023-02-02T05:18:08.594Z,100863.66
2023-02-02T05:22:20.930Z,100871.44
2023-02-02T05:26:33.586Z,100884.78
2023-02-02T05:30:46.087Z,100888.94
2023-02-02T05:34:58.523Z,100881.78
2023-02-02T05:39:11.092Z,100883.63
2023-02-02T05:43:27.710Z,100897.06
2023-02-02T05:47:40.007Z,100895.41
2023-02-02T05:51:57.917Z,100895.66
2023-02-02T05:56:10.285Z,100890.59
2023-02-02T06:00:23.227Z,100891.50
2023-02-02T06:04:35.565Z,100902.69
2023-02-02T06:08:47.857Z,100895.75
2023-02-02T06:13:00.192Z,100892.72
2023-02-02T06:17:12.533Z,100894.00
2023-02-02T06:21:25.086Z,100895.97
2023-02-02T06:25:37.540Z,100893.81
2023-02-02T06:29:49.912Z,100894.97
2023-02-02T06:34:02.295Z,100903.88
2023-02-02T06:38:14.590Z,100909.25
2023-02-02T06:42:26.959Z,100910.09
2023-02-02T06:46:39.357Z,100896.72
2023-02-02T06:50:52.016Z,100900.19
2023-02-02T06:55:04.591Z,100901.22
2023-02-02T06:59:16.988Z,100909.44
2023-02-02T07:03:29.219Z,100907.09
2023-02-02T07:07:41.530Z,100903.72
2023-02-02T07:11:53.905Z,100906.66
2023-02-02T07:16:07.541Z,100913.16
2023-02-02T07:20:20.565Z,100929.34
2023-02-02T07:24:34.073Z,100938.66
2023-02-02T07:28:49.460Z,100941.88
2023-02-02T07:33:02.465Z,100944.44
2023-02-02T07:37:14.928Z,100960.63
2023-02-02T07:41:28.239Z,100964.63
2023-02-02T07:45:40.852Z,100952.63
2023-02-02T07:49:53.411Z,100959.47
2023-02-02T07:54:06.127Z,100964.84
2023-02-02T07:58:18.557Z,100957.34
2023-02-02T08:02:30.907Z,100960.72
2023-02-02T08:06:43.292Z,100963.59
2023-02-02T08:10:55.876Z,100971.00
2023-02-02T08:15:08.969Z,100966.09
2023-02-02T08:19:21.501Z,100969.00
2023-02-02T08:23:33.844Z,100973.97
2023-02-02T08:27:46.405Z,100978.47
2023-02-02T08:32:00.532Z,100976.59
2023-02-02T08:36:15.097Z,100963.16
2023-02-02T08:40:27.494Z,100969.53
2023-02-02T08:45:59.800Z,100968.97
2023-02-02T08:49:15.062Z,100959.78
2023-02-02T08:53:29.948Z,100982.28
2023-02-02T08:57:48.867Z,100991.63
2023-02-02T09:02:01.537Z,100992.72
2023-02-02T09:06:16.914Z,100993.25
2023-02-02T09:10:32.199Z,100999.63
2023-02-02T09:14:46.608Z,101004.78
2023-02-02T09:18:59.315Z,101003.88
2023-02-02T09:23:11.617Z,100990.06
2023-02-02T09:27:24.210Z,101005.16
2023-02-02T09:31:40.622Z,100990.44
2023-02-02T09:35:53.087Z,100997.84
2023-02-02T09:40:06.943Z,100989.47
2023-02-02T09:44:54.003Z,100991.16
2023-02-02T09:49:14.724Z,100989.72
2023-02-02T09:53:55.272Z,100998.69
2023-02-02T09:58:20.717Z,100986.09
2023-02-02T10:02:44.709Z,100977.50
2023-02-02T10:07:01.019Z,100982.53
2023-02-02T10:11:33.862Z,100989.91
2023-02-02T10:15:55.850Z,100967.28
2023-02-02T10:20:31.287Z,100969.13
2023-02-02T10:24:43.956Z,100975.41
2023-02-02T10:29:17.022Z,100961.81
2023-02-02T10:33:40.078Z,100966.41
2023-02-02T10:38:25.171Z,100949.72
2023-02-02T10:43:14.838Z,100944.34
2023-02-02T10:47:35.484Z,100943.53
2023-02-02T10:51:59.330Z,100938.19
2023-02-02T18:21:53.466Z,100979.13
2023-02-02T18:26:20.079Z,100982.72
2023-02-02T18:30:32.834Z,100987.06
2023-02-02T18:34:45.965Z,100985.28
2023-02-02T18:38:58.429Z,100989.59
2023-02-02T18:43:10.744Z,100988.44
2023-02-02T18:47:26.515Z,100975.00
2023-02-02T18:51:39.320Z,100974.88
2023-02-02T18:55:51.713Z,100971.25
2023-02-02T19:00:05.503Z,100985.28
2023-02-02T19:04:17.890Z,101001.22
2023-02-02T19:08:33.917Z,101007.88
2023-02-02T19:13:07.020Z,100998.13
2023-02-02T19:17:24.744Z,101008.06
2023-02-02T19:21:37.118Z,101022.06
2023-02-02T19:25:52.483Z,101026.47
2023-02-02T19:30:17.155Z,101025.53
2023-02-02T19:34:33.711Z,101020.97
2023-02-02T19:38:47.257Z,101016.75
2023-02-02T19:43:25.470Z,101023.69
2023-02-02T19:47:41.387Z,101023.78
2023-02-02T19:51:55.511Z,101022.19
2023-02-02T19:56:38.131Z,101006.63
2023-02-02T20:00:52.464Z,100991.88
2023-02-02T20:05:18.198Z,100981.31
2023-02-02T20:09:35.573Z,101007.47
2023-02-02T20:13:49.044Z,101014.00
2023-02-02T20:18:04.983Z,101029.16
2023-02-02T20:22:30.527Z,101029.69
2023-02-02T20:26:50.347Z,101017.84
2023-02-02T20:31:09.220Z,101024.44
2023-02-02T20:35:36.287Z,101041.13
2023-02-02T20:39:58.088Z,101038.72
2023-02-02T20:44:11.290Z,101034.63
2023-02-02T20:48:25.873Z,101053.50
2023-02-02T20:52:39.180Z,101040.78
2023-02-02T20:56:52.464Z,101031.75
2023-02-02T21:01:05.979Z,101027.00
2023-02-02T21:05:18.341Z,101022.59
2023-02-02T21:09:30.615Z,101017.38
2023-02-02T21:13:43.389Z,101019.38
2023-02-02T21:17:55.703Z,100996.25
2023-02-02T21:22:08.063Z,100994.34
2023-02-02T21:26:26.814Z,101002.34
2023-02-02T21:30:39.422Z,101008.75
2023-02-02T21:34:51.882Z,101028.44
2023-02-02T21:39:26.857Z,101039.97
2023-02-02T21:43:39.198Z,101022.03
2023-02-02T21:47:54.285Z,101007.88
2023-02-02T21:52:17.894Z,101000.31
2023-02-02T21:56:39.400Z,101013.66
2023-02-02T22:00:53.838Z,100999.72
2023-02-02T22:05:36.288Z,101006.63
2023-02-02T22:09:50.342Z,101000.88
2023-02-02T22:14:19.270Z,100995.22
2023-02-02T22:18:35.977Z,100996.53
2023-02-02T22:22:50.563Z,100998.69
2023-02-02T22:27:04.663Z,100998.47
2023-02-02T22:31:18.160Z,101000.09
2023-02-02T22:35:31.049Z,100983.03
2023-02-02T22:39:43.400Z,100988.31
2023-02-02T22:43:56.048Z,101008.31
2023-02-02T22:48:09.890Z,101031.91
2023-02-02T22:52:22.647Z,101009.66
2023-02-02T22:56:34.970Z,100999.91
2023-02-02T23:00:48.420Z,100998.34
2023-02-02T23:05:01.039Z,101003.56
2023-02-02T23:09:13.712Z,100991.94
2023-02-02T23:13:26.068Z,100993.25
2023-02-02T23:17:38.696Z,100984.94
2023-02-02T23:21:51.008Z,100976.88
2023-02-02T23:26:03.623Z,100984.91
2023-02-02T23:30:22.553Z,101001.56
2023-02-02T23:34:34.976Z,100997.44
2023-02-02T23:38:48.390Z,101002.59
2023-02-02T23:43:00.989Z,101000.84
2023-02-02T23:47:14.385Z,100972.03
2023-02-02T23:51:26.975Z,100964.19
2023-02-02T23:55:44.549Z,100975.59
2023-02-02T23:59:56.950Z,100992.06
